Towaco, New Jersey
Current Conditions -  °F | °C
As of 9:53 PM on Wednesday 26 Nov 2014 (Local Time) from KCDW Reporting Station
Light Rain Light Rain  
Wind Chill: 30°   Ceiling: 4100
Heat Index: 36°   Visibility: 10mi
Dew Point: 30°   Wind: 8mph
Humidity: 79%   Direction: 340°NNW
Pressure: 29.83"   Gusts: NA
Location:  40.92°N, 74.34°W
Report Text: KCDW 270253Z 34007KT 300V030 10SM -RA FEW018 OVC041 02/M01 A2983 RMK AO2 UPE15B32E34RAB15 SLP110 P0000 60005 T00221011 51001
Loading
Personal Weather Stations






























Interactive Weather Map New forecast layout! Learn more

10-Day Weather Forecast

Advertisements
Track Severe Weather on mobile